createdAt,value
2023-02-25T00:00:00.885Z,736.53
2023-02-25T00:02:27.612Z,741.78
2023-02-25T00:04:54.289Z,743.40
2023-02-25T00:07:22.740Z,745.10
2023-02-25T00:09:49.346Z,738.92
2023-02-25T00:12:15.968Z,738.80
2023-02-25T00:14:42.582Z,740.67
2023-02-25T00:17:09.336Z,742.22
2023-02-25T00:19:36.035Z,741.73
2023-02-25T00:22:02.654Z,752.05
2023-02-25T00:24:29.218Z,732.58
2023-02-25T00:26:55.790Z,746.65
2023-02-25T00:29:22.882Z,751.78
2023-02-25T05:32:50.158Z,740.43
2023-02-25T05:35:17.440Z,739.70
2023-02-25T05:37:44.072Z,746.60
2023-02-25T05:40:14.170Z,736.25
2023-02-25T05:42:40.935Z,729.92
2023-02-25T05:45:09.073Z,725.63
2023-02-25T05:47:35.893Z,726.58
2023-02-25T05:50:03.049Z,722.92
2023-02-25T05:52:29.693Z,724.95
2023-02-25T05:54:56.387Z,714.45
2023-02-25T05:57:23.896Z,714.47
2023-02-25T05:59:50.948Z,708.67
2023-02-25T06:02:17.592Z,710.08
2023-02-25T06:04:44.226Z,711.97
2023-02-25T06:07:10.879Z,712.67
2023-02-25T06:09:37.518Z,712.50
2023-02-25T06:12:04.439Z,717.65
2023-02-25T06:14:31.028Z,709.53
2023-02-25T06:16:57.758Z,718.45
2023-02-25T06:19:26.380Z,722.57
2023-02-25T06:21:54.789Z,715.05
2023-02-25T06:24:22.540Z,720.83
2023-02-25T06:26:49.314Z,720.90
2023-02-25T06:29:15.988Z,722.53
2023-02-25T06:31:43.253Z,721.13
2023-02-25T06:34:10.348Z,715.85
2023-02-25T06:36:36.981Z,717.67
2023-02-25T06:39:03.859Z,716.30
2023-02-25T06:41:30.551Z,717.40
2023-02-25T06:43:57.234Z,722.95
2023-02-25T06:46:26.088Z,709.97
2023-02-25T06:48:53.566Z,723.33
2023-02-25T06:51:20.178Z,717.85
2023-02-25T06:53:47.677Z,732.37
2023-02-25T06:56:15.526Z,718.17
2023-02-25T06:58:42.939Z,720.42
2023-02-25T07:01:12.373Z,719.97
2023-02-25T07:03:39.292Z,712.40
2023-02-25T07:06:06.796Z,720.35
2023-02-25T07:08:33.457Z,714.28
2023-02-25T07:11:19.275Z,711.28
2023-02-25T07:13:51.306Z,721.15
2023-02-25T07:16:18.281Z,718.65
2023-02-25T07:18:45.362Z,717.20
2023-02-25T07:21:15.730Z,720.70
2023-02-25T07:23:42.864Z,721.60
2023-02-25T07:26:11.539Z,725.58
2023-02-25T07:28:38.314Z,735.72
2023-02-25T07:31:14.051Z,734.78
2023-02-25T07:33:41.703Z,744.13
2023-02-25T07:36:09.643Z,732.35
2023-02-25T07:38:37.254Z,737.35
2023-02-25T07:41:06.137Z,721.85
2023-02-25T07:43:32.897Z,732.42
2023-02-25T07:46:00.164Z,733.35
2023-02-25T07:48:27.462Z,730.08
2023-02-25T07:50:54.185Z,730.95
2023-02-25T07:53:22.475Z,728.70
2023-02-25T07:55:49.653Z,733.10
2023-02-25T07:58:16.354Z,733.80
2023-02-25T08:00:45.712Z,728.53
2023-02-25T08:03:12.588Z,732.72
2023-02-25T08:05:39.243Z,736.47
2023-02-25T08:08:05.982Z,726.15
2023-02-25T08:10:32.800Z,730.83
2023-02-25T08:12:59.440Z,729.93
2023-02-25T08:15:26.133Z,730.17
2023-02-25T08:17:54.321Z,727.70
2023-02-25T08:20:21.196Z,746.20
2023-02-25T08:22:47.884Z,736.15
2023-02-25T08:25:14.715Z,731.08
2023-02-25T08:27:41.382Z,736.40
2023-02-25T08:30:08.775Z,737.38
2023-02-25T08:32:36.682Z,729.53
2023-02-25T08:35:04.130Z,738.60
2023-02-25T08:37:30.827Z,735.83
2023-02-25T08:39:57.557Z,734.15
2023-02-25T08:42:24.291Z,744.10
2023-02-25T08:44:51.161Z,743.55
2023-02-25T08:47:17.803Z,746.63
2023-02-25T08:49:44.522Z,744.33
2023-02-25T08:52:12.003Z,753.08
2023-02-25T08:54:39.818Z,747.85
2023-02-25T08:57:06.521Z,750.00
2023-02-25T08:59:35.990Z,746.40
2023-02-25T09:02:07.305Z,744.88
2023-02-25T09:04:34.595Z,738.90
2023-02-25T09:07:02.041Z,733.77
2023-02-25T09:09:28.674Z,746.43
2023-02-25T09:11:55.464Z,736.97
2023-02-25T09:14:22.636Z,734.42
2023-02-25T09:16:49.650Z,736.60
2023-02-25T09:19:18.262Z,736.35
2023-02-25T09:21:48.203Z,738.42
2023-02-25T09:24:15.853Z,745.55
2023-02-25T09:26:42.589Z,736.67
2023-02-25T09:29:10.064Z,752.15
2023-02-25T09:31:37.796Z,751.83
2023-02-25T09:34:07.398Z,745.80
2023-02-25T09:36:34.140Z,745.33
2023-02-25T09:39:00.933Z,743.67
2023-02-25T09:41:33.469Z,752.92
2023-02-25T09:44:13.508Z,748.35
2023-02-25T09:47:02.578Z,750.47
2023-02-25T09:49:38.383Z,756.13
2023-02-25T09:52:31.789Z,759.35
2023-02-25T09:55:17.835Z,755.55
2023-02-25T09:57:54.115Z,754.53
2023-02-25T10:00:22.797Z,753.27
2023-02-25T10:03:06.886Z,759.70
2023-02-25T10:06:01.653Z,750.30
2023-02-25T10:08:28.551Z,751.25
2023-02-25T10:10:55.195Z,759.60
2023-02-25T10:13:39.844Z,751.40
2023-02-25T10:16:15.316Z,751.72
2023-02-25T10:18:47.985Z,746.67
2023-02-25T10:21:41.545Z,749.53
2023-02-25T10:24:25.901Z,758.72
2023-02-25T10:27:02.923Z,752.75
2023-02-25T10:29:49.086Z,751.22
2023-02-25T10:32:22.996Z,753.30
2023-02-25T10:34:57.861Z,754.97
2023-02-25T10:37:43.044Z,753.67
2023-02-25T10:40:15.647Z,755.25
2023-02-25T10:42:47.260Z,766.80
2023-02-25T10:45:20.408Z,767.60
2023-02-25T10:47:52.432Z,784.38
2023-02-25T10:50:44.418Z,788.60
2023-02-25T10:53:18.824Z,778.75
2023-02-25T10:55:53.318Z,775.80
2023-02-25T10:58:40.913Z,774.80
2023-02-25T11:01:16.086Z,781.90
2023-02-25T11:04:00.538Z,768.22
2023-02-25T11:06:38.415Z,771.55
2023-02-25T11:09:26.899Z,771.40
2023-02-25T11:12:13.930Z,792.10
2023-02-25T11:14:40.574Z,796.20
2023-02-25T11:17:20.311Z,793.45
2023-02-25T11:19:55.577Z,791.70
2023-02-25T11:22:44.469Z,794.33
2023-02-25T11:25:29.656Z,793.70
2023-02-25T11:27:58.885Z,792.97
2023-02-25T11:30:33.248Z,788.35
2023-02-25T11:33:06.046Z,776.03
2023-02-25T11:35:38.992Z,775.63
2023-02-25T11:38:25.478Z,769.70
2023-02-25T11:40:52.153Z,772.72
2023-02-25T11:46:00.228Z,773.17
2023-02-25T11:48:45.098Z,777.42
2023-02-25T11:51:34.830Z,776.03
2023-02-25T11:54:04.879Z,791.78
2023-02-25T11:56:36.466Z,771.05
2023-02-25T11:59:18.178Z,784.55
2023-02-25T12:02:21.945Z,781.75
2023-02-25T12:05:08.929Z,773.22
2023-02-25T12:08:12.594Z,774.03
2023-02-25T12:11:05.069Z,789.20
2023-02-25T12:13:59.691Z,775.42
2023-02-25T12:16:45.544Z,774.92
2023-02-25T12:20:04.759Z,771.27
2023-02-25T12:23:17.458Z,774.63
2023-02-25T12:26:14.532Z,788.13
2023-02-25T12:28:49.722Z,794.80
2023-02-25T12:32:14.665Z,782.97
2023-02-25T12:34:50.057Z,774.08
2023-02-25T12:37:16.683Z,792.20
2023-02-25T12:39:55.390Z,786.05
2023-02-25T12:42:42.238Z,784.80
2023-02-25T12:45:40.297Z,801.47
2023-02-25T12:48:32.749Z,780.72
2023-02-25T12:51:05.236Z,796.97
2023-02-25T12:53:58.460Z,807.28
2023-02-25T12:56:46.756Z,811.10
2023-02-25T12:59:32.296Z,817.10
2023-02-25T13:02:36.701Z,817.72
2023-02-25T13:05:18.332Z,823.28
2023-02-25T13:08:21.728Z,826.67
2023-02-25T13:10:54.575Z,836.15
2023-02-25T13:13:30.551Z,831.47
2023-02-25T13:16:15.688Z,835.85
2023-02-25T13:19:02.658Z,837.77
2023-02-25T13:22:12.171Z,839.92
2023-02-25T13:25:23.724Z,842.47
2023-02-25T13:28:00.677Z,844.33
2023-02-25T13:30:47.720Z,847.35
2023-02-25T13:33:17.392Z,838.35
2023-02-25T13:36:11.312Z,841.90
2023-02-25T13:39:02.759Z,838.65
2023-02-25T13:41:41.693Z,833.03
2023-02-25T13:44:25.416Z,843.67
2023-02-25T13:46:52.505Z,840.88
2023-02-25T13:49:30.249Z,840.78
2023-02-25T13:52:21.135Z,836.78
2023-02-25T13:55:16.155Z,848.25
2023-02-25T13:58:02.584Z,847.25
2023-02-25T14:00:41.895Z,855.67
2023-02-25T14:03:14.370Z,862.08
2023-02-25T14:06:08.452Z,864.17
2023-02-25T14:08:53.505Z,869.13
2023-02-25T14:12:00.480Z,869.75
2023-02-25T14:15:15.747Z,880.80
2023-02-25T14:18:01.244Z,895.20
2023-02-25T14:20:40.100Z,899.35
2023-02-25T14:23:23.458Z,914.17
2023-02-25T14:26:11.443Z,920.85
2023-02-25T14:28:47.907Z,928.08
2023-02-25T14:31:31.924Z,934.30
2023-02-25T14:34:22.908Z,942.05
2023-02-25T14:37:06.475Z,941.40
2023-02-25T14:40:00.067Z,954.08
2023-02-25T14:43:02.105Z,958.28
2023-02-25T14:45:45.903Z,945.03
2023-02-25T14:48:44.842Z,951.83
2023-02-25T14:51:23.675Z,952.05
2023-02-25T14:54:31.983Z,962.20
2023-02-25T14:57:36.621Z,955.05
2023-02-25T15:00:23.491Z,957.28
2023-02-25T15:03:43.127Z,950.65
2023-02-25T15:06:42.597Z,956.53
2023-02-25T15:09:09.188Z,959.75
2023-02-25T15:11:57.055Z,961.47
2023-02-25T15:14:33.272Z,952.53
2023-02-25T15:17:20.951Z,948.63
2023-02-25T15:19:59.581Z,944.55
2023-02-25T15:22:29.288Z,938.92
2023-02-25T15:25:20.974Z,952.15
2023-02-25T15:27:56.500Z,950.23
2023-02-25T15:30:25.433Z,949.03
2023-02-25T15:32:59.572Z,953.13
2023-02-25T15:35:35.794Z,955.55
2023-02-25T15:38:48.072Z,949.72
2023-02-25T15:41:26.787Z,944.07
2023-02-25T15:43:57.417Z,948.63
2023-02-25T15:46:36.454Z,951.25
2023-02-25T15:49:15.336Z,935.83
2023-02-25T15:51:49.709Z,933.17
2023-02-25T15:54:28.466Z,932.55
2023-02-25T15:57:04.753Z,930.80
2023-02-25T15:59:47.076Z,936.88
2023-02-25T16:02:34.654Z,948.65
2023-02-25T16:05:05.609Z,941.22
2023-02-25T16:07:37.633Z,945.53
2023-02-25T16:10:13.967Z,931.97
2023-02-25T16:12:42.870Z,921.97
2023-02-25T16:15:41.711Z,908.13
2023-02-25T16:18:15.058Z,892.08
2023-02-25T16:20:54.549Z,873.00
2023-02-25T16:23:21.317Z,859.60
2023-02-25T16:26:29.049Z,862.35
2023-02-25T16:29:24.572Z,842.83
2023-02-25T16:32:09.213Z,832.28
2023-02-25T16:34:47.237Z,828.15
2023-02-25T16:37:34.540Z,828.70
2023-02-25T16:40:01.859Z,818.67
2023-02-25T16:42:32.888Z,811.35
2023-02-25T16:45:02.045Z,809.28
2023-02-25T16:47:32.087Z,809.80
2023-02-25T16:50:01.506Z,802.30
2023-02-25T16:52:37.193Z,804.50
2023-02-25T16:55:10.841Z,802.30
2023-02-25T16:57:38.782Z,808.25
2023-02-25T17:00:25.725Z,803.15
2023-02-25T17:02:53.705Z,802.67
2023-02-25T17:05:38.699Z,801.60
2023-02-25T17:08:14.543Z,794.03
2023-02-25T17:10:47.333Z,798.85
2023-02-25T17:13:25.041Z,793.40
2023-02-25T17:15:52.951Z,794.53
2023-02-25T17:18:33.579Z,771.13
2023-02-25T17:21:06.479Z,768.13
2023-02-25T17:23:39.739Z,785.08
2023-02-25T17:26:06.692Z,779.35
2023-02-25T17:28:34.156Z,756.13
2023-02-25T17:31:10.596Z,786.80
2023-02-25T17:33:53.433Z,767.23
2023-02-25T17:36:25.145Z,772.75
2023-02-25T17:39:01.765Z,759.67
2023-02-25T17:41:28.808Z,757.40
2023-02-25T17:43:55.830Z,761.47
2023-02-25T17:46:22.635Z,756.83
2023-02-25T17:48:56.946Z,762.30
2023-02-25T17:53:56.542Z,747.58
2023-02-25T17:56:31.594Z,756.13
2023-02-25T17:59:02.950Z,752.63
2023-02-25T18:01:44.100Z,745.20
2023-02-25T18:04:26.380Z,739.35
2023-02-25T18:06:55.523Z,736.53
2023-02-25T18:09:33.255Z,738.65
2023-02-25T18:12:01.281Z,725.17
2023-02-25T18:14:38.215Z,719.50
2023-02-25T18:17:21.766Z,709.28
2023-02-25T18:19:48.575Z,698.03
2023-02-25T18:22:29.352Z,703.55
2023-02-25T18:25:00.486Z,705.38
2023-02-25T18:27:32.839Z,698.25
2023-02-25T18:30:20.437Z,693.70
2023-02-25T18:32:47.558Z,697.13
2023-02-25T18:35:15.150Z,696.25
2023-02-25T18:37:43.022Z,700.60
2023-02-25T18:40:27.586Z,700.87
2023-02-25T18:42:54.380Z,693.20
2023-02-25T18:45:23.066Z,702.35
2023-02-25T18:47:52.716Z,707.93
2023-02-25T18:50:20.503Z,703.80
2023-02-25T18:52:47.481Z,701.47
2023-02-25T18:55:28.398Z,700.35
2023-02-25T18:57:55.173Z,704.05
2023-02-25T19:00:24.722Z,706.10
2023-02-25T19:02:54.830Z,688.83
2023-02-25T19:05:23.723Z,687.55
2023-02-25T19:07:52.872Z,693.22
2023-02-25T19:10:21.335Z,685.17
2023-02-25T19:12:49.638Z,678.03
2023-02-25T19:15:20.772Z,649.00
2023-02-25T19:17:48.686Z,639.90
2023-02-25T19:20:18.782Z,638.45
2023-02-25T19:22:48.754Z,638.20
2023-02-25T19:25:27.710Z,639.42
2023-02-25T19:27:56.313Z,647.35
2023-02-25T19:30:30.987Z,659.95
2023-02-25T19:33:04.531Z,634.95
2023-02-25T19:35:34.139Z,635.53
2023-02-25T19:38:01.597Z,635.00
2023-02-25T19:40:29.152Z,632.53
2023-02-25T19:42:56.415Z,624.90
2023-02-25T19:45:24.850Z,629.55
2023-02-25T19:47:53.391Z,628.35
2023-02-25T19:50:21.681Z,626.40
2023-02-25T19:52:48.556Z,625.72
2023-02-25T19:55:15.380Z,627.00
2023-02-25T19:57:42.605Z,631.58
2023-02-25T20:00:15.911Z,630.78
2023-02-25T20:02:43.109Z,630.78
2023-02-25T20:05:11.845Z,639.88
2023-02-25T20:07:39.076Z,696.20
2023-02-25T20:10:10.800Z,700.70
2023-02-25T20:12:38.326Z,709.20
2023-02-25T20:15:06.740Z,648.80
2023-02-25T20:17:36.269Z,635.80
2023-02-25T20:20:03.653Z,635.50
2023-02-25T20:22:30.337Z,636.25
2023-02-25T20:24:57.013Z,622.75
2023-02-25T20:27:24.129Z,621.08
2023-02-25T20:29:50.818Z,622.10
2023-02-25T20:32:17.767Z,670.65
2023-02-25T20:34:44.699Z,632.80
2023-02-25T20:37:19.631Z,645.65
2023-02-25T20:39:53.734Z,673.08
2023-02-25T20:42:29.999Z,681.33
2023-02-25T20:44:58.524Z,626.63
2023-02-25T20:47:30.904Z,624.80
2023-02-25T20:49:58.455Z,624.97
2023-02-25T20:52:26.775Z,633.50
2023-02-25T20:54:54.362Z,633.10
2023-02-25T20:57:23.912Z,633.65
2023-02-25T20:59:51.062Z,646.15
2023-02-25T21:02:18.101Z,639.60
2023-02-25T21:04:45.340Z,640.13
2023-02-25T21:07:12.758Z,640.95
2023-02-25T21:09:40.274Z,646.30
2023-02-25T21:12:07.654Z,643.83
2023-02-25T21:14:34.379Z,649.65
2023-02-25T21:17:01.067Z,639.45
2023-02-25T21:19:28.286Z,659.92
2023-02-25T21:21:55.432Z,662.33
2023-02-25T21:24:22.527Z,659.25
2023-02-25T21:26:49.288Z,661.15
2023-02-25T21:29:16.089Z,663.08
2023-02-25T21:31:43.506Z,663.97
2023-02-25T21:34:12.734Z,664.78
2023-02-25T21:36:40.468Z,669.53
2023-02-25T21:39:09.384Z,667.35
2023-02-25T21:41:37.985Z,669.57
2023-02-25T21:44:04.899Z,675.58
2023-02-25T21:46:31.705Z,666.33
2023-02-25T21:48:59.416Z,663.83
2023-02-25T21:51:28.250Z,672.72
2023-02-25T21:53:56.518Z,664.70
2023-02-25T21:56:28.365Z,668.27
2023-02-25T21:58:56.830Z,666.17
2023-02-25T22:01:26.277Z,665.30
2023-02-25T22:03:53.275Z,669.00
2023-02-25T22:06:23.797Z,667.22
2023-02-25T22:08:51.985Z,663.80
2023-02-25T22:11:24.355Z,673.55
2023-02-25T22:13:52.612Z,670.85
2023-02-25T22:16:19.820Z,662.15
2023-02-25T22:18:46.634Z,644.25
2023-02-25T22:21:25.730Z,659.03
2023-02-25T22:23:54.752Z,654.90
2023-02-25T22:26:24.220Z,666.35
2023-02-25T22:28:55.812Z,640.13
2023-02-25T22:31:23.602Z,638.65
2023-02-25T22:33:50.746Z,635.40
2023-02-25T22:36:19.064Z,636.53
2023-02-25T22:38:47.179Z,635.20
2023-02-25T22:41:16.802Z,635.22
2023-02-25T22:43:44.625Z,629.60
2023-02-25T22:46:14.159Z,628.22
2023-02-25T22:48:42.584Z,630.58
2023-02-25T22:51:10.642Z,629.25
2023-02-25T22:53:38.426Z,634.92
2023-02-25T22:56:08.594Z,630.88
2023-02-25T22:58:38.629Z,632.28
2023-02-25T23:01:05.492Z,632.03
2023-02-25T23:03:32.308Z,633.22
2023-02-25T23:05:59.018Z,632.92
2023-02-25T23:08:25.946Z,631.63
2023-02-25T23:10:53.244Z,628.10
2023-02-25T23:13:20.149Z,621.70
2023-02-25T23:15:47.770Z,624.70
2023-02-25T23:18:15.637Z,635.05
2023-02-25T23:20:42.532Z,629.92
2023-02-25T23:23:09.521Z,624.97
2023-02-25T23:25:39.005Z,628.88
2023-02-25T23:28:07.732Z,629.33
2023-02-25T23:30:38.190Z,629.63
2023-02-25T23:33:05.856Z,637.42
2023-02-25T23:35:33.467Z,629.72
2023-02-25T23:38:00.654Z,628.03
2023-02-25T23:40:28.799Z,629.53
2023-02-25T23:42:55.716Z,628.22
2023-02-25T23:45:22.622Z,631.78
2023-02-25T23:47:49.362Z,629.33
2023-02-25T23:50:16.787Z,628.38
2023-02-25T23:52:44.902Z,627.70
2023-02-25T23:55:13.244Z,627.60
2023-02-25T23:57:40.271Z,622.90
